createdAt,value
2022-11-04T00:01:05.820Z,8.80
2022-11-04T00:03:32.944Z,8.90
2022-11-04T00:06:03.333Z,8.80
2022-11-04T00:08:30.532Z,8.80
2022-11-04T00:11:19.753Z,8.90
2022-11-04T00:13:47.664Z,8.90
2022-11-04T00:16:34.210Z,8.90
2022-11-04T00:19:01.867Z,8.90
2022-11-04T00:21:47.868Z,8.90
2022-11-04T00:24:33.892Z,9.00
2022-11-04T00:27:20.039Z,9.00
2022-11-04T00:29:47.194Z,9.00
2022-11-04T00:32:32.687Z,9.00
2022-11-04T00:34:59.983Z,9.00
2022-11-04T00:37:27.093Z,9.00
2022-11-04T00:39:54.329Z,9.10
2022-11-04T00:42:21.577Z,9.10
2022-11-04T00:44:48.645Z,9.10
2022-11-04T00:47:15.717Z,9.10
2022-11-04T00:49:42.801Z,9.20
2022-11-04T00:52:09.844Z,9.20
2022-11-04T00:54:36.921Z,9.20
2022-11-04T00:57:04.140Z,9.20
2022-11-04T00:59:31.208Z,9.20
2022-11-04T01:01:58.405Z,9.30
2022-11-04T01:04:25.626Z,9.30
2022-11-04T01:06:52.666Z,9.30
2022-11-04T01:09:19.950Z,9.30
2022-11-04T01:11:47.345Z,9.30
2022-11-04T01:14:14.778Z,9.30
2022-11-04T01:16:42.089Z,9.30
2022-11-04T01:19:09.482Z,9.30
2022-11-04T01:21:36.552Z,9.30
2022-11-04T01:24:04.122Z,9.30
2022-11-04T01:26:31.920Z,9.30
2022-11-04T01:29:00.323Z,9.30
2022-11-04T01:31:29.962Z,9.30
2022-11-04T01:33:58.262Z,9.30
2022-11-04T01:36:26.735Z,9.30
2022-11-04T01:38:56.729Z,9.30
2022-11-04T01:41:25.434Z,9.30
2022-11-04T01:43:57.764Z,9.30
2022-11-04T01:46:27.488Z,9.30
2022-11-04T01:49:03.365Z,9.30
2022-11-04T01:51:34.634Z,9.30
2022-11-04T01:54:02.684Z,9.30
2022-11-04T01:56:30.028Z,9.30
2022-11-04T01:59:03.046Z,9.30
2022-11-04T02:01:30.307Z,9.30
2022-11-04T02:04:20.130Z,9.40
2022-11-04T02:06:48.910Z,9.40
2022-11-04T02:09:18.548Z,9.40
2022-11-04T02:12:04.722Z,9.40
2022-11-04T02:14:33.261Z,9.40
2022-11-04T02:17:20.324Z,9.40
2022-11-04T02:19:50.175Z,9.40
2022-11-04T02:22:23.411Z,9.40
2022-11-04T02:25:04.362Z,9.50
2022-11-04T02:27:31.513Z,9.50
2022-11-04T02:30:21.996Z,9.40
2022-11-04T02:33:11.874Z,9.50
2022-11-04T02:35:51.127Z,9.50
2022-11-04T02:38:50.838Z,9.40
2022-11-04T02:41:40.126Z,9.40
2022-11-04T02:44:31.475Z,9.40
2022-11-04T02:47:08.751Z,9.40
2022-11-04T02:49:40.812Z,9.40
2022-11-04T02:52:11.520Z,9.40
2022-11-04T02:54:57.162Z,9.40
2022-11-04T02:57:29.461Z,9.30
2022-11-04T03:00:06.865Z,9.30
2022-11-04T03:02:56.667Z,9.30
2022-11-04T03:05:29.108Z,9.30
2022-11-04T03:08:00.485Z,9.20
2022-11-04T03:10:38.755Z,9.20
2022-11-04T03:13:17.060Z,9.20
2022-11-04T03:15:55.842Z,9.20
2022-11-04T03:18:50.809Z,9.20
2022-11-04T03:21:19.432Z,9.20
2022-11-04T03:23:46.601Z,9.20
2022-11-04T03:26:27.939Z,9.10
2022-11-04T03:29:19.320Z,9.10
2022-11-04T03:31:56.776Z,9.10
2022-11-04T03:34:24.128Z,9.10
2022-11-04T03:36:51.221Z,9.00
2022-11-04T03:39:18.448Z,9.00
2022-11-04T03:41:52.747Z,9.00
2022-11-04T03:44:20.140Z,9.00
2022-11-04T03:46:47.229Z,9.00
2022-11-04T03:49:15.442Z,9.10
2022-11-04T03:51:42.499Z,9.10
2022-11-04T03:54:09.749Z,9.10
2022-11-04T03:57:00.504Z,9.10
2022-11-04T03:59:48.442Z,9.10
2022-11-04T04:02:50.836Z,9.00
2022-11-04T04:05:26.887Z,9.00
2022-11-04T04:08:07.840Z,9.00
2022-11-04T04:10:53.925Z,9.00
2022-11-04T04:13:49.337Z,9.00
2022-11-04T04:16:41.516Z,8.90
2022-11-04T04:19:21.608Z,8.90
2022-11-04T04:21:55.186Z,8.90
2022-11-04T04:24:45.259Z,8.90
2022-11-04T04:27:31.740Z,8.80
2022-11-04T04:30:17.686Z,8.80
2022-11-04T04:32:58.904Z,8.80
2022-11-04T04:35:44.318Z,8.90
2022-11-04T04:38:45.287Z,8.80
2022-11-04T04:41:38.854Z,8.90
2022-11-04T04:44:39.555Z,8.90
2022-11-04T04:47:08.035Z,8.90
2022-11-04T04:49:38.080Z,8.90
2022-11-04T04:52:08.199Z,8.90
2022-11-04T04:54:35.262Z,8.90
2022-11-04T04:57:02.378Z,8.90
2022-11-04T04:59:29.415Z,8.90
2022-11-04T05:01:56.566Z,8.90
2022-11-04T05:04:23.655Z,8.90
2022-11-04T05:06:50.848Z,8.80
2022-11-04T05:09:17.911Z,8.80
2022-11-04T05:11:44.989Z,8.80
2022-11-04T05:14:12.140Z,8.80
2022-11-04T05:16:40.875Z,8.80
2022-11-04T05:19:08.492Z,8.70
2022-11-04T05:21:36.170Z,8.80
2022-11-04T05:24:03.264Z,8.80
2022-11-04T05:26:30.335Z,8.80
2022-11-04T05:28:57.420Z,8.80
2022-11-04T05:31:24.531Z,8.80
2022-11-04T05:33:51.591Z,8.80
2022-11-04T05:36:18.679Z,8.80
2022-11-04T05:38:51.362Z,8.80
2022-11-04T05:41:28.278Z,8.70
2022-11-04T05:44:00.271Z,8.70
2022-11-04T05:46:28.604Z,8.70
2022-11-04T05:48:56.136Z,8.70
2022-11-04T05:51:26.913Z,8.70
2022-11-04T05:53:54.414Z,8.70
2022-11-04T05:56:21.539Z,8.70
2022-11-04T05:58:48.709Z,8.70
2022-11-04T06:01:36.568Z,8.70
2022-11-04T06:04:05.522Z,8.70
2022-11-04T06:06:37.065Z,8.70
2022-11-04T06:09:04.552Z,8.70
2022-11-04T06:11:32.788Z,8.70
2022-11-04T06:14:00.412Z,8.70
2022-11-04T06:16:27.920Z,8.70
2022-11-04T06:18:56.227Z,8.70
2022-11-04T06:21:28.979Z,8.70
2022-11-04T06:23:57.563Z,8.70
2022-11-04T06:26:28.963Z,8.60
2022-11-04T06:28:57.086Z,8.70
2022-11-04T06:31:24.295Z,8.70
2022-11-04T06:33:51.383Z,8.70
2022-11-04T06:36:18.610Z,8.80
2022-11-04T06:38:45.938Z,8.80
2022-11-04T06:41:16.022Z,8.90
2022-11-04T06:43:43.419Z,8.90
2022-11-04T06:46:27.312Z,8.90
2022-11-04T06:48:56.348Z,9.00
2022-11-04T06:51:24.267Z,9.10
2022-11-04T06:57:26.931Z,9.50
2022-11-04T07:00:42.467Z,9.30
2022-11-04T07:03:38.543Z,9.40
2022-11-04T07:06:32.343Z,9.40
2022-11-04T07:09:41.270Z,9.50
2022-11-04T07:12:33.322Z,9.40
2022-11-04T07:15:34.771Z,9.80
2022-11-04T07:18:23.833Z,9.70
2022-11-04T07:21:10.380Z,9.80
2022-11-04T07:24:05.991Z,9.90
2022-11-04T07:27:14.939Z,9.90
2022-11-04T07:32:52.587Z,10.00
2022-11-04T07:36:04.352Z,10.00
2022-11-04T07:39:12.482Z,10.10
2022-11-04T07:45:35.571Z,10.20
2022-11-04T07:52:25.421Z,10.40
2022-11-04T07:56:03.811Z,10.40
2022-11-04T07:58:50.048Z,10.50
2022-11-04T08:01:36.950Z,10.60
2022-11-04T08:04:27.207Z,10.60
2022-11-04T08:07:52.115Z,10.70
2022-11-04T08:11:17.508Z,10.70
2022-11-04T08:14:31.982Z,10.70
2022-11-04T08:18:04.481Z,10.70
2022-11-04T08:21:07.433Z,11.30
2022-11-04T08:24:07.703Z,10.80
2022-11-04T08:27:19.015Z,10.80
2022-11-04T08:30:11.614Z,10.90
2022-11-04T08:32:56.099Z,10.90
2022-11-04T08:36:14.244Z,11.00
2022-11-04T08:38:53.083Z,11.10
2022-11-04T08:42:05.329Z,11.10
2022-11-04T08:48:27.688Z,11.30
2022-11-04T08:51:07.167Z,11.30
2022-11-04T08:54:18.945Z,11.40
2022-11-04T08:57:15.495Z,11.50
2022-11-04T08:59:58.762Z,11.50
2022-11-04T09:02:51.758Z,11.60
2022-11-04T09:05:50.968Z,11.60
2022-11-04T09:08:59.419Z,11.60
2022-11-04T09:11:49.227Z,11.70
2022-11-04T09:15:02.422Z,11.70
2022-11-04T09:18:00.609Z,11.70
2022-11-04T09:21:13.898Z,11.80
2022-11-04T09:24:10.035Z,11.80
2022-11-04T09:27:13.133Z,12.00
2022-11-04T09:30:21.078Z,12.10
2022-11-04T09:33:09.819Z,12.20
2022-11-04T09:36:25.238Z,12.20
2022-11-04T09:39:29.585Z,12.30
2022-11-04T09:43:04.784Z,12.40
2022-11-04T09:49:56.780Z,12.40
2022-11-04T09:52:48.730Z,12.50
2022-11-04T09:55:41.032Z,12.40
2022-11-04T09:58:34.320Z,12.50
2022-11-04T10:02:22.461Z,12.50
2022-11-04T10:05:36.496Z,12.50
2022-11-04T10:09:02.408Z,12.50
2022-11-04T10:12:20.696Z,12.50
2022-11-04T10:15:49.320Z,12.50
2022-11-04T10:19:25.061Z,12.60
2022-11-04T10:23:08.673Z,12.50
2022-11-04T10:29:46.034Z,12.50
2022-11-04T11:26:13.543Z,12.80
2022-11-04T11:32:30.979Z,13.00
2022-11-04T11:35:21.057Z,12.60
2022-11-04T11:41:25.281Z,13.10
2022-11-04T11:44:47.948Z,13.10
2022-11-04T11:47:47.640Z,13.10
2022-11-04T11:50:54.333Z,13.20
2022-11-04T11:53:48.174Z,13.20
2022-11-04T11:57:12.445Z,13.10
2022-11-04T12:11:19.922Z,13.40
2022-11-04T12:14:13.497Z,13.70
2022-11-04T12:17:38.117Z,13.30
2022-11-04T12:21:05.816Z,13.20
2022-11-04T12:24:32.551Z,13.20
2022-11-04T12:31:03.112Z,13.00
2022-11-04T12:34:35.999Z,13.00
2022-11-04T12:40:42.237Z,13.00
2022-11-04T12:47:56.486Z,13.00
2022-11-04T12:50:57.969Z,12.90
2022-11-04T12:54:12.353Z,12.80
2022-11-04T12:57:02.041Z,12.70
2022-11-04T13:11:29.124Z,12.80
2022-11-04T13:14:52.775Z,12.80
2022-11-04T13:17:50.724Z,12.80
2022-11-04T13:24:38.374Z,12.80
2022-11-04T13:27:53.459Z,12.70
2022-11-04T13:31:17.983Z,12.70
2022-11-04T13:38:01.800Z,12.70
2022-11-04T13:49:40.987Z,12.70
2022-11-04T13:56:20.902Z,12.60
2022-11-04T14:24:18.258Z,12.40
2022-11-04T14:27:09.963Z,12.50
2022-11-04T14:44:10.154Z,12.30
2022-11-04T14:47:49.213Z,12.30
2022-11-04T15:25:31.366Z,12.00
2022-11-04T15:46:30.143Z,11.80
2022-11-04T15:49:07.596Z,11.80
2022-11-04T15:51:38.415Z,11.80
2022-11-04T15:54:16.009Z,11.80
2022-11-04T15:56:50.824Z,11.80
2022-11-04T15:59:22.531Z,11.80
2022-11-04T16:01:52.224Z,11.70
2022-11-04T16:04:23.123Z,11.70
2022-11-04T16:07:06.389Z,11.70
2022-11-04T16:09:51.653Z,11.70
2022-11-04T16:12:27.669Z,11.70
2022-11-04T16:15:00.038Z,11.70
2022-11-04T16:17:29.443Z,11.70
2022-11-04T16:20:03.119Z,11.60
2022-11-04T16:22:42.569Z,11.60
2022-11-04T16:25:22.703Z,11.60
2022-11-04T16:27:50.790Z,11.60
2022-11-04T16:30:20.533Z,11.60
2022-11-04T16:32:48.812Z,11.60
2022-11-04T16:35:15.972Z,11.60
2022-11-04T16:37:43.228Z,11.60
2022-11-04T16:40:10.789Z,11.60
2022-11-04T16:42:38.137Z,11.60
2022-11-04T16:45:08.266Z,11.60
2022-11-04T16:47:38.885Z,11.60
2022-11-04T16:50:17.030Z,11.50
2022-11-04T16:52:44.589Z,11.60
2022-11-04T16:55:13.939Z,11.50
2022-11-04T16:57:41.527Z,11.20
2022-11-04T17:00:09.397Z,11.50
2022-11-04T17:02:37.910Z,11.50
2022-11-04T17:05:06.014Z,11.50
2022-11-04T17:07:51.616Z,11.50
2022-11-04T17:10:23.354Z,11.50
2022-11-04T17:12:50.558Z,11.50
2022-11-04T17:15:17.810Z,11.50
2022-11-04T17:17:45.309Z,11.50
2022-11-04T17:20:16.705Z,11.50
2022-11-04T17:22:44.466Z,11.50
2022-11-04T17:25:26.858Z,11.50
2022-11-04T17:27:54.268Z,11.40
2022-11-04T17:30:22.907Z,11.40
2022-11-04T17:32:50.741Z,11.40
2022-11-04T17:35:22.599Z,11.40
2022-11-04T17:37:57.668Z,11.40
2022-11-04T17:40:29.485Z,11.40
2022-11-04T17:43:15.881Z,11.40
2022-11-04T17:46:12.070Z,11.30
2022-11-04T17:48:46.236Z,11.40
2022-11-04T17:51:28.292Z,11.50
2022-11-04T17:53:59.538Z,11.90
2022-11-04T17:56:36.508Z,11.40
2022-11-04T18:02:14.081Z,11.40
2022-11-04T18:04:44.909Z,11.40
2022-11-04T18:07:14.744Z,11.40
2022-11-04T18:09:51.432Z,11.30
2022-11-04T18:12:46.053Z,11.40
2022-11-04T18:15:18.186Z,11.30
2022-11-04T18:17:49.509Z,11.30
2022-11-04T18:20:23.371Z,11.40
2022-11-04T18:23:01.197Z,11.40
2022-11-04T18:25:35.270Z,11.30
2022-11-04T18:29:23.819Z,10.80
2022-11-04T18:31:55.538Z,11.30
2022-11-04T18:34:25.535Z,11.40
2022-11-04T18:36:53.358Z,11.30
2022-11-04T18:39:23.854Z,11.30
2022-11-04T18:41:51.773Z,11.50
2022-11-04T18:44:25.745Z,11.30
2022-11-04T18:46:58.889Z,11.30
2022-11-04T18:49:52.370Z,12.10
2022-11-04T18:52:20.643Z,11.30
2022-11-04T18:54:52.480Z,11.30
2022-11-04T18:57:22.577Z,11.30
2022-11-04T18:59:50.246Z,11.00
2022-11-04T19:02:23.698Z,11.30
2022-11-04T19:04:52.912Z,11.20
2022-11-04T19:07:20.268Z,11.20
2022-11-04T19:10:03.184Z,11.30
2022-11-04T19:12:56.639Z,11.30
2022-11-04T19:15:28.305Z,11.30
2022-11-04T19:17:58.156Z,11.30
2022-11-04T19:20:36.763Z,11.30
2022-11-04T19:23:08.876Z,11.40
2022-11-04T19:26:17.308Z,11.70
2022-11-04T19:28:49.124Z,11.30
2022-11-04T19:36:33.369Z,11.30
2022-11-04T19:39:00.718Z,11.30
2022-11-04T19:41:46.806Z,11.30
2022-11-04T19:44:17.808Z,11.30
2022-11-04T19:46:50.477Z,11.30
2022-11-04T19:49:20.609Z,11.30
2022-11-04T19:51:50.168Z,11.30
2022-11-04T19:54:18.456Z,11.30
2022-11-04T19:56:45.600Z,11.30
2022-11-04T19:59:12.840Z,11.30
2022-11-04T20:01:40.226Z,11.30
2022-11-04T20:04:07.788Z,11.30
2022-11-04T20:06:35.590Z,11.30
2022-11-04T20:09:05.605Z,11.30
2022-11-04T20:11:43.188Z,11.20
2022-11-04T20:14:10.615Z,11.20
2022-11-04T20:16:39.713Z,11.20
2022-11-04T20:19:07.067Z,11.20
2022-11-04T20:21:36.854Z,11.20
2022-11-04T20:24:09.313Z,11.20
2022-11-04T20:26:38.434Z,11.20
2022-11-04T20:29:06.653Z,11.20
2022-11-04T20:31:37.032Z,11.20
2022-11-04T20:34:10.254Z,11.20
2022-11-04T20:36:41.097Z,11.20
2022-11-04T20:39:14.111Z,11.30
2022-11-04T20:41:41.750Z,11.20
2022-11-04T20:44:14.044Z,11.20
2022-11-04T20:46:44.559Z,11.20
2022-11-04T20:49:12.623Z,11.20
2022-11-04T20:51:55.486Z,11.20
2022-11-04T20:54:23.084Z,11.20
2022-11-04T20:56:50.212Z,11.20
2022-11-04T20:59:18.485Z,11.20
2022-11-04T21:01:47.457Z,11.10
2022-11-04T21:04:20.399Z,11.20
2022-11-04T21:06:49.995Z,11.20
2022-11-04T21:09:19.673Z,11.20
2022-11-04T21:11:47.254Z,11.20
2022-11-04T21:14:17.095Z,11.20
2022-11-04T21:16:44.251Z,11.20
2022-11-04T21:19:12.192Z,11.20
2022-11-04T21:21:41.984Z,11.20
2022-11-04T21:24:12.759Z,11.10
2022-11-04T21:26:43.375Z,11.20
2022-11-04T21:29:16.942Z,11.10
2022-11-04T21:31:44.780Z,11.10
2022-11-04T21:34:12.356Z,11.10
2022-11-04T21:36:40.656Z,11.20
2022-11-04T21:39:11.257Z,11.20
2022-11-04T21:41:38.741Z,11.20
2022-11-04T21:44:08.852Z,11.20
2022-11-04T21:46:37.045Z,11.20
2022-11-04T21:49:15.095Z,11.20
2022-11-04T21:51:42.374Z,11.20
2022-11-04T21:54:10.659Z,11.20
2022-11-04T21:56:38.226Z,11.10
2022-11-04T21:59:05.888Z,11.10
2022-11-04T22:01:34.001Z,11.10
2022-11-04T22:04:04.192Z,11.10
2022-11-04T22:15:12.245Z,11.00
2022-11-04T22:17:39.368Z,10.90
2022-11-04T22:20:07.058Z,10.90
2022-11-04T22:22:34.379Z,11.00
2022-11-04T22:25:06.851Z,10.90
2022-11-04T22:27:34.495Z,10.90
2022-11-04T22:30:01.607Z,10.90
2022-11-04T22:32:29.124Z,10.80
2022-11-04T22:34:56.511Z,10.80
2022-11-04T22:37:23.637Z,10.80
2022-11-04T22:39:51.291Z,10.80
2022-11-04T22:43:11.593Z,10.70
2022-11-04T22:45:38.930Z,10.70
2022-11-04T22:48:06.264Z,10.80
2022-11-04T22:50:34.298Z,10.80
2022-11-04T22:53:01.536Z,10.70
2022-11-04T22:55:28.599Z,10.70
2022-11-04T22:57:55.757Z,10.70
2022-11-04T23:00:23.162Z,10.70
2022-11-04T23:02:50.497Z,10.60
2022-11-04T23:05:17.849Z,10.60
2022-11-04T23:07:44.962Z,10.80
2022-11-04T23:10:33.436Z,10.60
2022-11-04T23:13:18.892Z,10.60
2022-11-04T23:16:04.504Z,10.60
2022-11-04T23:18:43.829Z,10.40
2022-11-04T23:21:34.128Z,10.50
2022-11-04T23:24:19.786Z,10.40
2022-11-04T23:26:48.001Z,10.40
2022-11-04T23:29:36.020Z,10.40
2022-11-04T23:32:03.948Z,10.40
2022-11-04T23:34:49.464Z,10.50
2022-11-04T23:37:17.045Z,10.40
2022-11-04T23:39:47.245Z,10.40
2022-11-04T23:42:19.602Z,10.30
2022-11-04T23:45:13.906Z,10.30
2022-11-04T23:48:05.412Z,10.30
2022-11-04T23:50:52.930Z,10.20
2022-11-04T23:53:39.465Z,10.30
2022-11-04T23:56:28.226Z,10.30
2022-11-04T23:59:14.020Z,10.30
